sensor_id;sensor_type;location;lat;lon;timestamp;temperature;humidity
25628;DHT22;40915;50.826;4.356;2023-12-20T00:00:57;6.50;99.90
25628;DHT22;40915;50.826;4.356;2023-12-20T00:03:23;6.50;99.90
25628;DHT22;40915;50.826;4.356;2023-12-20T00:05:49;6.50;99.90
25628;DHT22;40915;50.826;4.356;2023-12-20T00:08:15;6.40;99.90
25628;DHT22;40915;50.826;4.356;2023-12-20T00:10:40;6.50;99.90
25628;DHT22;40915;50.826;4.356;2023-12-20T00:13:06;6.50;99.90
25628;DHT22;40915;50.826;4.356;2023-12-20T00:15:33;6.50;99.90
25628;DHT22;40915;50.826;4.356;2023-12-20T00:17:59;6.50;99.90
25628;DHT22;40915;50.826;4.356;2023-12-20T00:20:26;6.50;99.90
25628;DHT22;40915;50.826;4.356;2023-12-20T00:22:52;6.60;99.90
25628;DHT22;40915;50.826;4.356;2023-12-20T00:25:18;6.60;99.90
25628;DHT22;40915;50.826;4.356;2023-12-20T00:27:43;6.60;99.90
25628;DHT22;40915;50.826;4.356;2023-12-20T00:30:09;6.50;99.90
25628;DHT22;40915;50.826;4.356;2023-12-20T00:32:35;6.40;99.90
25628;DHT22;40915;50.826;4.356;2023-12-20T00:35:01;6.40;99.90
25628;DHT22;40915;50.826;4.356;2023-12-20T00:37:27;6.40;99.90
25628;DHT22;40915;50.826;4.356;2023-12-20T00:39:53;6.40;99.90
25628;DHT22;40915;50.826;4.356;2023-12-20T00:42:18;6.30;99.90
25628;DHT22;40915;50.826;4.356;2023-12-20T00:44:44;6.30;99.90
25628;DHT22;40915;50.826;4.356;2023-12-20T00:47:10;6.20;99.90
25628;DHT22;40915;50.826;4.356;2023-12-20T00:49:36;6.30;99.90
25628;DHT22;40915;50.826;4.356;2023-12-20T00:52:01;6.30;99.90
25628;DHT22;40915;50.826;4.356;2023-12-20T00:54:27;6.20;99.90
25628;DHT22;40915;50.826;4.356;2023-12-20T00:56:52;6.30;99.90
25628;DHT22;40915;50.826;4.356;2023-12-20T00:59:18;6.30;99.90
25628;DHT22;40915;50.826;4.356;2023-12-20T01:01:44;6.20;99.90
25628;DHT22;40915;50.826;4.356;2023-12-20T01:04:10;6.20;99.90
25628;DHT22;40915;50.826;4.356;2023-12-20T01:06:36;6.20;99.90
25628;DHT22;40915;50.826;4.356;2023-12-20T01:09:01;6.10;99.90
25628;DHT22;40915;50.826;4.356;2023-12-20T01:11:28;6.10;99.90
25628;DHT22;40915;50.826;4.356;2023-12-20T01:13:54;6.10;99.90
25628;DHT22;40915;50.826;4.356;2023-12-20T01:16:19;6.00;99.90
25628;DHT22;40915;50.826;4.356;2023-12-20T01:18:45;6.00;99.90
25628;DHT22;40915;50.826;4.356;2023-12-20T01:21:10;6.00;99.90
25628;DHT22;40915;50.826;4.356;2023-12-20T01:23:36;6.00;99.90
25628;DHT22;40915;50.826;4.356;2023-12-20T01:26:02;6.00;99.90
25628;DHT22;40915;50.826;4.356;2023-12-20T01:28:31;6.00;99.90
25628;DHT22;40915;50.826;4.356;2023-12-20T01:30:57;5.90;99.90
25628;DHT22;40915;50.826;4.356;2023-12-20T01:33:23;5.90;99.90
25628;DHT22;40915;50.826;4.356;2023-12-20T01:35:49;5.90;99.90
25628;DHT22;40915;50.826;4.356;2023-12-20T01:38:14;5.90;99.90
25628;DHT22;40915;50.826;4.356;2023-12-20T01:40:40;5.90;99.90
25628;DHT22;40915;50.826;4.356;2023-12-20T01:43:09;5.90;99.90
25628;DHT22;40915;50.826;4.356;2023-12-20T01:45:35;5.90;99.90
25628;DHT22;40915;50.826;4.356;2023-12-20T01:48:01;6.00;99.90
25628;DHT22;40915;50.826;4.356;2023-12-20T01:50:28;5.90;99.90
25628;DHT22;40915;50.826;4.356;2023-12-20T01:52:55;5.90;99.90
25628;DHT22;40915;50.826;4.356;2023-12-20T01:55:26;5.90;99.90
25628;DHT22;40915;50.826;4.356;2023-12-20T01:57:53;5.90;99.90
25628;DHT22;40915;50.826;4.356;2023-12-20T02:00:19;5.90;99.90
25628;DHT22;40915;50.826;4.356;2023-12-20T02:02:48;5.90;99.90
25628;DHT22;40915;50.826;4.356;2023-12-20T02:05:16;5.90;99.90
25628;DHT22;40915;50.826;4.356;2023-12-20T02:07:42;5.90;99.90
25628;DHT22;40915;50.826;4.356;2023-12-20T02:10:08;5.90;99.90
25628;DHT22;40915;50.826;4.356;2023-12-20T02:12:33;5.90;99.90
25628;DHT22;40915;50.826;4.356;2023-12-20T02:14:59;5.90;99.90
25628;DHT22;40915;50.826;4.356;2023-12-20T02:17:25;5.90;99.90
25628;DHT22;40915;50.826;4.356;2023-12-20T02:19:51;5.90;99.90
25628;DHT22;40915;50.826;4.356;2023-12-20T02:22:17;5.90;99.90
25628;DHT22;40915;50.826;4.356;2023-12-20T02:24:42;5.90;99.90
25628;DHT22;40915;50.826;4.356;2023-12-20T02:27:08;5.80;99.90
25628;DHT22;40915;50.826;4.356;2023-12-20T02:29:35;5.80;99.90
25628;DHT22;40915;50.826;4.356;2023-12-20T02:32:01;5.90;99.90
25628;DHT22;40915;50.826;4.356;2023-12-20T02:34:28;5.80;99.90
25628;DHT22;40915;50.826;4.356;2023-12-20T02:36:54;5.80;99.90
25628;DHT22;40915;50.826;4.356;2023-12-20T02:39:19;5.80;99.90
25628;DHT22;40915;50.826;4.356;2023-12-20T02:41:45;5.80;99.90
25628;DHT22;40915;50.826;4.356;2023-12-20T02:44:11;5.80;99.90
25628;DHT22;40915;50.826;4.356;2023-12-20T02:46:36;5.80;99.90
25628;DHT22;40915;50.826;4.356;2023-12-20T02:49:02;5.80;99.90
25628;DHT22;40915;50.826;4.356;2023-12-20T02:51:27;5.80;99.90
25628;DHT22;40915;50.826;4.356;2023-12-20T02:53:53;5.80;99.90
25628;DHT22;40915;50.826;4.356;2023-12-20T02:56:19;5.80;99.90
25628;DHT22;40915;50.826;4.356;2023-12-20T02:58:44;5.80;99.90
25628;DHT22;40915;50.826;4.356;2023-12-20T03:01:10;5.90;99.90
25628;DHT22;40915;50.826;4.356;2023-12-20T03:03:35;5.80;99.90
25628;DHT22;40915;50.826;4.356;2023-12-20T03:06:01;5.80;99.90
25628;DHT22;40915;50.826;4.356;2023-12-20T03:08:27;5.80;99.90
25628;DHT22;40915;50.826;4.356;2023-12-20T03:10:52;5.90;99.90
25628;DHT22;40915;50.826;4.356;2023-12-20T03:13:19;5.90;99.90
25628;DHT22;40915;50.826;4.356;2023-12-20T03:15:47;6.00;99.90
25628;DHT22;40915;50.826;4.356;2023-12-20T03:18:13;6.00;99.90
25628;DHT22;40915;50.826;4.356;2023-12-20T03:20:39;6.00;99.90
25628;DHT22;40915;50.826;4.356;2023-12-20T03:23:06;6.10;99.90
25628;DHT22;40915;50.826;4.356;2023-12-20T03:25:31;6.10;99.90
25628;DHT22;40915;50.826;4.356;2023-12-20T03:27:57;6.10;99.90
25628;DHT22;40915;50.826;4.356;2023-12-20T03:30:23;6.10;99.90
25628;DHT22;40915;50.826;4.356;2023-12-20T03:32:48;6.10;99.90
25628;DHT22;40915;50.826;4.356;2023-12-20T03:35:14;6.20;99.90
25628;DHT22;40915;50.826;4.356;2023-12-20T03:37:39;6.20;99.90
25628;DHT22;40915;50.826;4.356;2023-12-20T03:40:05;6.20;99.90
25628;DHT22;40915;50.826;4.356;2023-12-20T03:42:31;6.20;99.90
25628;DHT22;40915;50.826;4.356;2023-12-20T03:44:57;6.10;99.90
25628;DHT22;40915;50.826;4.356;2023-12-20T03:47:22;6.10;99.90
25628;DHT22;40915;50.826;4.356;2023-12-20T03:49:48;6.20;99.90
25628;DHT22;40915;50.826;4.356;2023-12-20T03:52:13;6.10;99.90
25628;DHT22;40915;50.826;4.356;2023-12-20T03:54:40;6.10;99.90
25628;DHT22;40915;50.826;4.356;2023-12-20T03:57:07;6.00;99.90
25628;DHT22;40915;50.826;4.356;2023-12-20T03:59:36;6.00;99.90
25628;DHT22;40915;50.826;4.356;2023-12-20T04:02:03;5.90;99.90
25628;DHT22;40915;50.826;4.356;2023-12-20T04:04:28;5.90;99.90
25628;DHT22;40915;50.826;4.356;2023-12-20T04:06:54;5.90;99.90
25628;DHT22;40915;50.826;4.356;2023-12-20T04:09:19;5.90;99.90
25628;DHT22;40915;50.826;4.356;2023-12-20T04:11:45;6.00;99.90
25628;DHT22;40915;50.826;4.356;2023-12-20T04:14:11;6.00;99.90
25628;DHT22;40915;50.826;4.356;2023-12-20T04:16:36;6.10;99.90
25628;DHT22;40915;50.826;4.356;2023-12-20T04:19:02;6.10;99.90
25628;DHT22;40915;50.826;4.356;2023-12-20T04:21:28;6.10;99.90
25628;DHT22;40915;50.826;4.356;2023-12-20T04:23:53;6.00;99.90
25628;DHT22;40915;50.826;4.356;2023-12-20T04:26:19;6.00;99.90
25628;DHT22;40915;50.826;4.356;2023-12-20T04:28:44;6.00;99.90
25628;DHT22;40915;50.826;4.356;2023-12-20T04:31:10;6.00;99.90
25628;DHT22;40915;50.826;4.356;2023-12-20T04:33:36;6.00;99.90
25628;DHT22;40915;50.826;4.356;2023-12-20T04:36:01;6.00;99.90
25628;DHT22;40915;50.826;4.356;2023-12-20T04:38:27;5.90;99.90
25628;DHT22;40915;50.826;4.356;2023-12-20T04:40:53;6.00;99.90
25628;DHT22;40915;50.826;4.356;2023-12-20T04:43:18;5.90;99.90
25628;DHT22;40915;50.826;4.356;2023-12-20T04:45:44;5.90;99.90
25628;DHT22;40915;50.826;4.356;2023-12-20T04:48:10;6.00;99.90
25628;DHT22;40915;50.826;4.356;2023-12-20T04:50:35;6.00;99.90
25628;DHT22;40915;50.826;4.356;2023-12-20T04:53:01;5.90;99.90
25628;DHT22;40915;50.826;4.356;2023-12-20T04:55:26;6.00;99.90
25628;DHT22;40915;50.826;4.356;2023-12-20T04:57:52;5.90;99.90
25628;DHT22;40915;50.826;4.356;2023-12-20T05:00:18;5.90;99.90
25628;DHT22;40915;50.826;4.356;2023-12-20T05:02:43;5.90;99.90
25628;DHT22;40915;50.826;4.356;2023-12-20T05:05:09;6.00;99.90
25628;DHT22;40915;50.826;4.356;2023-12-20T05:07:35;6.00;99.90
25628;DHT22;40915;50.826;4.356;2023-12-20T05:10:00;5.90;99.90
25628;DHT22;40915;50.826;4.356;2023-12-20T05:12:26;6.00;99.90
25628;DHT22;40915;50.826;4.356;2023-12-20T05:14:52;6.00;99.90
25628;DHT22;40915;50.826;4.356;2023-12-20T05:17:17;6.00;99.90
25628;DHT22;40915;50.826;4.356;2023-12-20T05:19:43;6.10;99.90
25628;DHT22;40915;50.826;4.356;2023-12-20T05:22:09;6.00;99.90
25628;DHT22;40915;50.826;4.356;2023-12-20T05:24:35;6.00;99.90
25628;DHT22;40915;50.826;4.356;2023-12-20T05:27:00;5.90;99.90
25628;DHT22;40915;50.826;4.356;2023-12-20T05:29:26;5.90;99.90
25628;DHT22;40915;50.826;4.356;2023-12-20T05:31:52;5.90;99.90
25628;DHT22;40915;50.826;4.356;2023-12-20T05:34:17;5.80;99.90
25628;DHT22;40915;50.826;4.356;2023-12-20T05:36:43;5.80;99.90
25628;DHT22;40915;50.826;4.356;2023-12-20T05:39:08;5.80;99.90
25628;DHT22;40915;50.826;4.356;2023-12-20T05:41:34;5.70;99.90
25628;DHT22;40915;50.826;4.356;2023-12-20T05:43:59;5.70;99.90
25628;DHT22;40915;50.826;4.356;2023-12-20T05:46:25;5.70;99.90
25628;DHT22;40915;50.826;4.356;2023-12-20T05:48:51;5.60;99.90
25628;DHT22;40915;50.826;4.356;2023-12-20T05:51:17;5.60;99.90
25628;DHT22;40915;50.826;4.356;2023-12-20T05:53:44;5.50;99.90
25628;DHT22;40915;50.826;4.356;2023-12-20T05:56:10;5.40;99.90
25628;DHT22;40915;50.826;4.356;2023-12-20T05:58:35;5.40;99.90
25628;DHT22;40915;50.826;4.356;2023-12-20T06:01:04;5.50;99.90
25628;DHT22;40915;50.826;4.356;2023-12-20T06:03:30;5.40;99.90
25628;DHT22;40915;50.826;4.356;2023-12-20T06:05:56;5.50;99.90
25628;DHT22;40915;50.826;4.356;2023-12-20T06:08:21;5.40;99.90
25628;DHT22;40915;50.826;4.356;2023-12-20T06:10:48;5.50;99.90
25628;DHT22;40915;50.826;4.356;2023-12-20T06:13:14;5.40;99.90
25628;DHT22;40915;50.826;4.356;2023-12-20T06:15:39;5.50;99.90
25628;DHT22;40915;50.826;4.356;2023-12-20T06:18:08;5.50;99.90
25628;DHT22;40915;50.826;4.356;2023-12-20T06:20:35;5.50;99.90
25628;DHT22;40915;50.826;4.356;2023-12-20T06:23:01;5.50;99.90
25628;DHT22;40915;50.826;4.356;2023-12-20T06:25:26;5.50;99.90
25628;DHT22;40915;50.826;4.356;2023-12-20T06:27:52;5.60;99.90
25628;DHT22;40915;50.826;4.356;2023-12-20T06:30:18;5.60;99.90
25628;DHT22;40915;50.826;4.356;2023-12-20T06:32:43;5.70;99.90
25628;DHT22;40915;50.826;4.356;2023-12-20T06:35:09;5.70;99.90
25628;DHT22;40915;50.826;4.356;2023-12-20T06:37:35;5.60;99.90
25628;DHT22;40915;50.826;4.356;2023-12-20T06:40:01;5.60;99.90
25628;DHT22;40915;50.826;4.356;2023-12-20T06:42:26;5.60;99.90
25628;DHT22;40915;50.826;4.356;2023-12-20T06:44:52;5.60;99.90
25628;DHT22;40915;50.826;4.356;2023-12-20T06:47:18;5.60;99.90
25628;DHT22;40915;50.826;4.356;2023-12-20T06:49:43;5.50;99.90
25628;DHT22;40915;50.826;4.356;2023-12-20T06:52:09;5.50;99.90
25628;DHT22;40915;50.826;4.356;2023-12-20T06:54:35;5.50;99.90
25628;DHT22;40915;50.826;4.356;2023-12-20T06:57:01;5.50;99.90
25628;DHT22;40915;50.826;4.356;2023-12-20T06:59:29;5.50;99.90
25628;DHT22;40915;50.826;4.356;2023-12-20T07:01:54;5.40;99.90
25628;DHT22;40915;50.826;4.356;2023-12-20T07:04:20;5.30;99.90
25628;DHT22;40915;50.826;4.356;2023-12-20T07:06:50;5.30;99.90
25628;DHT22;40915;50.826;4.356;2023-12-20T07:09:22;5.30;99.90
25628;DHT22;40915;50.826;4.356;2023-12-20T07:11:48;5.30;99.90
25628;DHT22;40915;50.826;4.356;2023-12-20T07:14:14;5.20;99.90
25628;DHT22;40915;50.826;4.356;2023-12-20T07:16:40;5.20;99.90
25628;DHT22;40915;50.826;4.356;2023-12-20T07:19:06;5.20;99.90
25628;DHT22;40915;50.826;4.356;2023-12-20T07:21:31;5.20;99.90
25628;DHT22;40915;50.826;4.356;2023-12-20T07:23:57;5.30;99.90
25628;DHT22;40915;50.826;4.356;2023-12-20T07:26:23;5.30;99.90
25628;DHT22;40915;50.826;4.356;2023-12-20T07:28:49;5.30;99.90
25628;DHT22;40915;50.826;4.356;2023-12-20T07:31:18;5.20;99.90
25628;DHT22;40915;50.826;4.356;2023-12-20T07:33:43;5.30;99.90
25628;DHT22;40915;50.826;4.356;2023-12-20T07:36:10;5.30;99.90
25628;DHT22;40915;50.826;4.356;2023-12-20T07:38:35;5.20;99.90
25628;DHT22;40915;50.826;4.356;2023-12-20T07:41:01;5.20;99.90
25628;DHT22;40915;50.826;4.356;2023-12-20T07:43:27;5.10;99.90
25628;DHT22;40915;50.826;4.356;2023-12-20T07:45:52;5.10;99.90
25628;DHT22;40915;50.826;4.356;2023-12-20T07:48:18;5.10;99.90
25628;DHT22;40915;50.826;4.356;2023-12-20T07:50:43;5.10;99.90
25628;DHT22;40915;50.826;4.356;2023-12-20T07:53:09;5.10;99.90
25628;DHT22;40915;50.826;4.356;2023-12-20T07:55:35;5.20;99.90
25628;DHT22;40915;50.826;4.356;2023-12-20T07:58:00;5.10;99.90
25628;DHT22;40915;50.826;4.356;2023-12-20T08:00:27;5.10;99.90
25628;DHT22;40915;50.826;4.356;2023-12-20T08:02:52;5.10;99.90
25628;DHT22;40915;50.826;4.356;2023-12-20T08:05:18;5.10;99.90
25628;DHT22;40915;50.826;4.356;2023-12-20T08:07:43;5.20;99.90
25628;DHT22;40915;50.826;4.356;2023-12-20T08:10:09;5.20;99.90
25628;DHT22;40915;50.826;4.356;2023-12-20T08:12:35;5.20;99.90
25628;DHT22;40915;50.826;4.356;2023-12-20T08:15:02;5.30;99.90
25628;DHT22;40915;50.826;4.356;2023-12-20T08:17:27;5.30;99.90
25628;DHT22;40915;50.826;4.356;2023-12-20T08:19:53;5.30;99.90
25628;DHT22;40915;50.826;4.356;2023-12-20T08:22:19;5.40;99.90
25628;DHT22;40915;50.826;4.356;2023-12-20T08:24:45;5.40;99.90
25628;DHT22;40915;50.826;4.356;2023-12-20T08:27:10;5.30;99.90
25628;DHT22;40915;50.826;4.356;2023-12-20T08:29:36;5.30;99.90
25628;DHT22;40915;50.826;4.356;2023-12-20T08:32:02;5.40;99.90
25628;DHT22;40915;50.826;4.356;2023-12-20T08:34:28;5.40;99.90
25628;DHT22;40915;50.826;4.356;2023-12-20T08:36:53;5.40;99.90
25628;DHT22;40915;50.826;4.356;2023-12-20T08:39:19;5.50;99.90
25628;DHT22;40915;50.826;4.356;2023-12-20T08:41:45;5.50;99.90
25628;DHT22;40915;50.826;4.356;2023-12-20T08:44:10;5.50;99.90
25628;DHT22;40915;50.826;4.356;2023-12-20T08:46:36;5.50;99.90
25628;DHT22;40915;50.826;4.356;2023-12-20T08:49:02;5.50;99.90
25628;DHT22;40915;50.826;4.356;2023-12-20T08:51:28;5.50;99.90
25628;DHT22;40915;50.826;4.356;2023-12-20T08:53:54;5.50;99.90
25628;DHT22;40915;50.826;4.356;2023-12-20T08:56:20;5.60;99.90
25628;DHT22;40915;50.826;4.356;2023-12-20T08:58:46;5.70;99.90
25628;DHT22;40915;50.826;4.356;2023-12-20T09:01:13;5.70;99.90
25628;DHT22;40915;50.826;4.356;2023-12-20T09:03:39;5.80;99.90
25628;DHT22;40915;50.826;4.356;2023-12-20T09:06:05;5.80;99.90
25628;DHT22;40915;50.826;4.356;2023-12-20T09:08:31;5.80;99.90
25628;DHT22;40915;50.826;4.356;2023-12-20T09:10:57;5.90;99.90
25628;DHT22;40915;50.826;4.356;2023-12-20T09:13:23;5.90;99.90
25628;DHT22;40915;50.826;4.356;2023-12-20T09:15:54;5.90;99.90
25628;DHT22;40915;50.826;4.356;2023-12-20T09:18:20;6.00;99.90
25628;DHT22;40915;50.826;4.356;2023-12-20T09:20:46;6.00;99.90
25628;DHT22;40915;50.826;4.356;2023-12-20T09:23:12;5.90;99.90
25628;DHT22;40915;50.826;4.356;2023-12-20T09:25:37;6.00;99.90
25628;DHT22;40915;50.826;4.356;2023-12-20T09:28:03;6.00;99.90
25628;DHT22;40915;50.826;4.356;2023-12-20T09:30:29;6.00;99.90
25628;DHT22;40915;50.826;4.356;2023-12-20T09:32:55;6.10;99.90
25628;DHT22;40915;50.826;4.356;2023-12-20T09:35:21;6.10;99.90
25628;DHT22;40915;50.826;4.356;2023-12-20T09:37:46;6.10;99.90
25628;DHT22;40915;50.826;4.356;2023-12-20T09:40:13;6.10;99.90
25628;DHT22;40915;50.826;4.356;2023-12-20T09:43:08;6.20;99.90
25628;DHT22;40915;50.826;4.356;2023-12-20T09:45:35;6.30;99.90
25628;DHT22;40915;50.826;4.356;2023-12-20T09:48:01;6.20;99.90
25628;DHT22;40915;50.826;4.356;2023-12-20T09:50:30;6.30;99.90
25628;DHT22;40915;50.826;4.356;2023-12-20T09:52:58;6.40;99.90
25628;DHT22;40915;50.826;4.356;2023-12-20T09:55:25;6.50;99.90
25628;DHT22;40915;50.826;4.356;2023-12-20T09:57:51;6.50;99.90
25628;DHT22;40915;50.826;4.356;2023-12-20T10:00:17;6.60;99.90
25628;DHT22;40915;50.826;4.356;2023-12-20T10:02:56;6.70;99.90
25628;DHT22;40915;50.826;4.356;2023-12-20T10:05:27;6.80;99.90
25628;DHT22;40915;50.826;4.356;2023-12-20T10:07:52;6.80;99.90
25628;DHT22;40915;50.826;4.356;2023-12-20T10:10:18;6.80;99.90
25628;DHT22;40915;50.826;4.356;2023-12-20T10:13:07;6.80;99.90
25628;DHT22;40915;50.826;4.356;2023-12-20T10:15:34;6.80;99.90
25628;DHT22;40915;50.826;4.356;2023-12-20T10:18:00;6.70;99.90
25628;DHT22;40915;50.826;4.356;2023-12-20T10:20:27;6.60;99.90
25628;DHT22;40915;50.826;4.356;2023-12-20T10:22:55;6.70;99.90
25628;DHT22;40915;50.826;4.356;2023-12-20T10:25:21;6.70;99.90
25628;DHT22;40915;50.826;4.356;2023-12-20T10:27:47;6.80;99.90
25628;DHT22;40915;50.826;4.356;2023-12-20T10:30:13;6.90;99.90
25628;DHT22;40915;50.826;4.356;2023-12-20T10:32:40;7.00;99.90
25628;DHT22;40915;50.826;4.356;2023-12-20T10:35:06;7.10;99.90
25628;DHT22;40915;50.826;4.356;2023-12-20T10:37:38;7.10;99.90
25628;DHT22;40915;50.826;4.356;2023-12-20T10:40:05;7.20;99.90
25628;DHT22;40915;50.826;4.356;2023-12-20T10:42:32;7.20;99.90
25628;DHT22;40915;50.826;4.356;2023-12-20T10:44:59;7.20;99.90
25628;DHT22;40915;50.826;4.356;2023-12-20T10:47:25;7.30;99.90
25628;DHT22;40915;50.826;4.356;2023-12-20T10:49:54;7.30;99.90
25628;DHT22;40915;50.826;4.356;2023-12-20T10:52:23;7.40;99.90
25628;DHT22;40915;50.826;4.356;2023-12-20T10:54:49;7.40;99.90
25628;DHT22;40915;50.826;4.356;2023-12-20T10:57:17;7.40;99.90
25628;DHT22;40915;50.826;4.356;2023-12-20T10:59:45;7.50;99.90
25628;DHT22;40915;50.826;4.356;2023-12-20T11:02:13;7.50;99.90
25628;DHT22;40915;50.826;4.356;2023-12-20T11:04:58;7.50;99.90
25628;DHT22;40915;50.826;4.356;2023-12-20T11:07:50;7.60;99.90
25628;DHT22;40915;50.826;4.356;2023-12-20T11:10:25;7.60;99.90
25628;DHT22;40915;50.826;4.356;2023-12-20T11:15:17;7.60;99.90
25628;DHT22;40915;50.826;4.356;2023-12-20T11:17:54;7.60;99.90
25628;DHT22;40915;50.826;4.356;2023-12-20T11:20:23;7.60;99.90
25628;DHT22;40915;50.826;4.356;2023-12-20T11:22:53;7.70;99.90
25628;DHT22;40915;50.826;4.356;2023-12-20T11:25:19;7.60;99.90
25628;DHT22;40915;50.826;4.356;2023-12-20T11:28:10;7.70;99.90
25628;DHT22;40915;50.826;4.356;2023-12-20T11:33:13;7.80;99.90
25628;DHT22;40915;50.826;4.356;2023-12-20T11:35:39;7.70;99.90
25628;DHT22;40915;50.826;4.356;2023-12-20T11:38:08;7.80;99.90
25628;DHT22;40915;50.826;4.356;2023-12-20T11:40:35;7.70;99.90
25628;DHT22;40915;50.826;4.356;2023-12-20T11:43:00;7.70;99.90
25628;DHT22;40915;50.826;4.356;2023-12-20T11:45:26;7.70;99.90
25628;DHT22;40915;50.826;4.356;2023-12-20T11:47:53;7.70;99.90
25628;DHT22;40915;50.826;4.356;2023-12-20T11:50:21;7.70;99.90
25628;DHT22;40915;50.826;4.356;2023-12-20T11:52:48;7.70;99.90
25628;DHT22;40915;50.826;4.356;2023-12-20T11:55:14;7.70;99.90
25628;DHT22;40915;50.826;4.356;2023-12-20T11:57:40;7.80;99.90
25628;DHT22;40915;50.826;4.356;2023-12-20T12:00:06;7.80;99.90
25628;DHT22;40915;50.826;4.356;2023-12-20T12:02:32;7.80;99.90
25628;DHT22;40915;50.826;4.356;2023-12-20T12:04:59;7.90;99.90
25628;DHT22;40915;50.826;4.356;2023-12-20T12:07:25;7.90;99.90
25628;DHT22;40915;50.826;4.356;2023-12-20T12:09:51;8.00;99.90
25628;DHT22;40915;50.826;4.356;2023-12-20T12:12:17;8.00;99.90
25628;DHT22;40915;50.826;4.356;2023-12-20T12:14:45;8.00;99.90
25628;DHT22;40915;50.826;4.356;2023-12-20T12:17:12;8.10;99.90
25628;DHT22;40915;50.826;4.356;2023-12-20T12:19:41;8.10;99.90
25628;DHT22;40915;50.826;4.356;2023-12-20T12:22:08;8.10;99.90
25628;DHT22;40915;50.826;4.356;2023-12-20T12:24:38;8.10;99.90
25628;DHT22;40915;50.826;4.356;2023-12-20T12:27:06;8.10;99.90
25628;DHT22;40915;50.826;4.356;2023-12-20T12:29:33;8.20;99.90
25628;DHT22;40915;50.826;4.356;2023-12-20T12:31:59;8.20;99.90
25628;DHT22;40915;50.826;4.356;2023-12-20T12:34:27;8.20;99.90
25628;DHT22;40915;50.826;4.356;2023-12-20T12:36:52;8.20;99.90
25628;DHT22;40915;50.826;4.356;2023-12-20T12:39:18;8.20;99.90
25628;DHT22;40915;50.826;4.356;2023-12-20T12:41:44;8.20;99.90
25628;DHT22;40915;50.826;4.356;2023-12-20T12:44:09;8.20;99.90
25628;DHT22;40915;50.826;4.356;2023-12-20T12:46:35;8.20;99.90
25628;DHT22;40915;50.826;4.356;2023-12-20T12:49:01;8.20;99.90
25628;DHT22;40915;50.826;4.356;2023-12-20T12:51:26;8.20;99.90
25628;DHT22;40915;50.826;4.356;2023-12-20T12:53:53;8.20;99.90
25628;DHT22;40915;50.826;4.356;2023-12-20T12:56:18;8.20;99.90
25628;DHT22;40915;50.826;4.356;2023-12-20T12:58:44;8.20;99.90
25628;DHT22;40915;50.826;4.356;2023-12-20T13:01:10;8.20;99.90
25628;DHT22;40915;50.826;4.356;2023-12-20T13:03:37;8.20;99.90
25628;DHT22;40915;50.826;4.356;2023-12-20T13:06:03;8.30;99.90
25628;DHT22;40915;50.826;4.356;2023-12-20T13:08:31;8.30;99.90
25628;DHT22;40915;50.826;4.356;2023-12-20T13:10:57;8.30;99.90
25628;DHT22;40915;50.826;4.356;2023-12-20T13:13:26;8.30;99.90
25628;DHT22;40915;50.826;4.356;2023-12-20T13:15:52;8.30;99.90
25628;DHT22;40915;50.826;4.356;2023-12-20T13:18:20;8.20;99.90
25628;DHT22;40915;50.826;4.356;2023-12-20T13:20:47;8.20;99.90
25628;DHT22;40915;50.826;4.356;2023-12-20T13:23:12;8.20;99.90
25628;DHT22;40915;50.826;4.356;2023-12-20T13:25:38;8.20;99.90
25628;DHT22;40915;50.826;4.356;2023-12-20T13:28:05;8.30;99.90
25628;DHT22;40915;50.826;4.356;2023-12-20T13:30:31;8.30;99.90
25628;DHT22;40915;50.826;4.356;2023-12-20T13:32:57;8.30;99.90
25628;DHT22;40915;50.826;4.356;2023-12-20T13:35:22;8.40;99.90
25628;DHT22;40915;50.826;4.356;2023-12-20T13:37:48;8.40;99.90
25628;DHT22;40915;50.826;4.356;2023-12-20T13:40:14;8.40;99.90
25628;DHT22;40915;50.826;4.356;2023-12-20T13:42:40;8.50;99.90
25628;DHT22;40915;50.826;4.356;2023-12-20T13:45:06;8.50;99.90
25628;DHT22;40915;50.826;4.356;2023-12-20T13:47:32;8.50;99.90
25628;DHT22;40915;50.826;4.356;2023-12-20T13:49:58;8.60;99.90
25628;DHT22;40915;50.826;4.356;2023-12-20T13:52:24;8.60;99.90
25628;DHT22;40915;50.826;4.356;2023-12-20T13:54:49;8.50;99.90
25628;DHT22;40915;50.826;4.356;2023-12-20T13:57:15;8.50;99.90
25628;DHT22;40915;50.826;4.356;2023-12-20T13:59:41;8.60;99.90
25628;DHT22;40915;50.826;4.356;2023-12-20T14:02:06;8.70;99.90
25628;DHT22;40915;50.826;4.356;2023-12-20T14:04:32;8.80;99.90
25628;DHT22;40915;50.826;4.356;2023-12-20T14:06:58;8.80;99.90
25628;DHT22;40915;50.826;4.356;2023-12-20T14:09:23;8.70;99.90
25628;DHT22;40915;50.826;4.356;2023-12-20T14:11:49;8.70;99.90
25628;DHT22;40915;50.826;4.356;2023-12-20T14:14:15;8.70;99.90
25628;DHT22;40915;50.826;4.356;2023-12-20T14:16:40;8.80;99.90
25628;DHT22;40915;50.826;4.356;2023-12-20T14:19:08;8.70;99.90
25628;DHT22;40915;50.826;4.356;2023-12-20T14:21:35;8.70;99.90
25628;DHT22;40915;50.826;4.356;2023-12-20T14:24:00;8.70;99.90
25628;DHT22;40915;50.826;4.356;2023-12-20T14:26:26;8.70;99.90
25628;DHT22;40915;50.826;4.356;2023-12-20T14:28:53;8.70;99.90
25628;DHT22;40915;50.826;4.356;2023-12-20T14:31:19;8.70;99.90
25628;DHT22;40915;50.826;4.356;2023-12-20T14:33:44;8.70;99.90
25628;DHT22;40915;50.826;4.356;2023-12-20T14:36:11;8.70;99.90
25628;DHT22;40915;50.826;4.356;2023-12-20T14:38:37;8.80;99.90
25628;DHT22;40915;50.826;4.356;2023-12-20T14:41:03;8.70;99.90
25628;DHT22;40915;50.826;4.356;2023-12-20T14:43:31;8.70;99.90
25628;DHT22;40915;50.826;4.356;2023-12-20T14:45:56;8.70;99.90
25628;DHT22;40915;50.826;4.356;2023-12-20T14:48:22;8.70;99.90
25628;DHT22;40915;50.826;4.356;2023-12-20T14:50:48;8.70;99.90
25628;DHT22;40915;50.826;4.356;2023-12-20T14:53:14;8.80;99.90
25628;DHT22;40915;50.826;4.356;2023-12-20T14:55:42;8.70;99.90
25628;DHT22;40915;50.826;4.356;2023-12-20T14:58:07;8.70;99.90
25628;DHT22;40915;50.826;4.356;2023-12-20T15:00:33;8.80;99.90
25628;DHT22;40915;50.826;4.356;2023-12-20T15:02:59;8.80;99.90
25628;DHT22;40915;50.826;4.356;2023-12-20T15:05:25;8.90;99.90
25628;DHT22;40915;50.826;4.356;2023-12-20T15:07:52;8.80;99.90
25628;DHT22;40915;50.826;4.356;2023-12-20T15:10:18;8.80;99.90
25628;DHT22;40915;50.826;4.356;2023-12-20T15:12:44;8.80;99.90
25628;DHT22;40915;50.826;4.356;2023-12-20T15:15:11;8.80;99.90
25628;DHT22;40915;50.826;4.356;2023-12-20T15:17:36;8.80;99.90
25628;DHT22;40915;50.826;4.356;2023-12-20T15:20:03;8.80;99.90
25628;DHT22;40915;50.826;4.356;2023-12-20T15:22:30;8.80;99.90
25628;DHT22;40915;50.826;4.356;2023-12-20T15:24:56;8.90;99.90
25628;DHT22;40915;50.826;4.356;2023-12-20T15:27:22;8.80;99.90
25628;DHT22;40915;50.826;4.356;2023-12-20T15:29:48;8.90;99.90
25628;DHT22;40915;50.826;4.356;2023-12-20T15:32:15;9.00;99.90
25628;DHT22;40915;50.826;4.356;2023-12-20T15:34:41;9.00;99.90
25628;DHT22;40915;50.826;4.356;2023-12-20T15:37:07;8.90;99.90
25628;DHT22;40915;50.826;4.356;2023-12-20T15:39:32;8.90;99.90
25628;DHT22;40915;50.826;4.356;2023-12-20T15:41:58;8.90;99.90
25628;DHT22;40915;50.826;4.356;2023-12-20T15:44:23;8.90;99.90